createdAt,value
2017-08-02T00:00:46.938Z,0.00
2017-08-02T00:01:46.882Z,0.00
2017-08-02T00:02:41.967Z,0.00
2017-08-02T00:03:36.969Z,0.00
2017-08-02T00:04:37.049Z,0.00
2017-08-02T00:05:32.100Z,0.00
2017-08-02T00:06:27.008Z,0.00
2017-08-02T00:07:33.213Z,0.00
2017-08-02T00:08:33.249Z,0.00
2017-08-02T00:09:33.132Z,0.00
2017-08-02T00:10:27.132Z,0.00
2017-08-02T00:11:27.413Z,0.00
2017-08-02T00:12:27.702Z,0.00
2017-08-02T00:13:22.438Z,0.00
2017-08-02T00:14:16.555Z,0.00
2017-08-02T00:15:16.490Z,0.00
2017-08-02T00:16:11.451Z,0.00
2017-08-02T00:17:06.955Z,0.00
2017-08-02T00:18:06.850Z,0.00
2017-08-02T00:19:01.596Z,0.00
2017-08-02T00:19:56.854Z,0.00
2017-08-02T00:20:56.801Z,0.00
2017-08-02T00:21:51.791Z,0.00
2017-08-02T00:22:46.922Z,0.00
2017-08-02T00:23:47.734Z,0.00
2017-08-02T00:24:47.764Z,0.00
2017-08-02T00:25:47.753Z,0.00
2017-08-02T00:26:42.802Z,0.00
2017-08-02T00:27:37.454Z,0.00
2017-08-02T00:28:37.349Z,0.00
2017-08-02T00:29:32.147Z,0.00
2017-08-02T00:30:32.111Z,0.00
2017-08-02T00:31:26.225Z,0.00
2017-08-02T00:32:26.540Z,0.00
2017-08-02T00:33:21.104Z,0.00
2017-08-02T00:34:16.432Z,0.00
2017-08-02T00:35:16.386Z,0.00
2017-08-02T00:36:11.289Z,0.00
2017-08-02T00:37:11.516Z,0.00
2017-08-02T00:38:11.769Z,0.00
2017-08-02T00:39:11.601Z,0.00
2017-08-02T00:40:05.304Z,0.00
2017-08-02T00:41:05.363Z,0.00
2017-08-02T00:42:00.426Z,0.00
2017-08-02T00:42:56.029Z,0.00
2017-08-02T00:43:56.788Z,0.00
2017-08-02T00:44:56.962Z,0.00
2017-08-02T00:45:56.915Z,0.00
2017-08-02T00:46:52.063Z,0.00
2017-08-02T00:47:46.177Z,0.00
2017-08-02T00:48:45.697Z,0.00
2017-08-02T00:49:40.787Z,0.00
2017-08-02T00:50:41.373Z,0.00
2017-08-02T00:51:34.822Z,0.00
2017-08-02T00:52:34.734Z,0.00
2017-08-02T00:53:29.869Z,0.00
2017-08-02T00:54:24.857Z,0.00
2017-08-02T00:55:24.929Z,0.00
2017-08-02T00:56:13.949Z,0.00
2017-08-02T00:57:02.040Z,0.00
2017-08-02T00:58:03.661Z,0.00
2017-08-02T00:58:57.216Z,0.00
2017-08-02T00:59:57.159Z,0.00
2017-08-02T01:00:52.166Z,0.00
2017-08-02T01:01:47.362Z,0.00
2017-08-02T01:02:47.673Z,0.00
2017-08-02T01:03:42.694Z,0.00
2017-08-02T01:04:37.532Z,0.00
2017-08-02T01:05:38.199Z,0.00
2017-08-02T01:06:38.404Z,0.00
2017-08-02T01:07:39.052Z,0.00
2017-08-02T01:08:38.528Z,0.00
2017-08-02T01:09:39.552Z,0.00
2017-08-02T01:10:40.549Z,0.00
2017-08-02T01:11:40.941Z,0.00
2017-08-02T01:12:48.121Z,0.00
2017-08-02T01:13:48.131Z,0.00
2017-08-02T01:14:53.828Z,0.00
2017-08-02T01:15:48.891Z,0.00
2017-08-02T01:16:48.734Z,0.00
2017-08-02T01:17:44.237Z,0.00
2017-08-02T01:18:38.794Z,0.00
2017-08-02T01:19:39.264Z,0.00
2017-08-02T01:20:33.830Z,0.00
2017-08-02T01:21:28.903Z,0.00
2017-08-02T01:22:30.418Z,0.00
2017-08-02T01:23:30.587Z,0.00
2017-08-02T01:24:29.938Z,0.00
2017-08-02T01:25:25.001Z,0.00
2017-08-02T01:26:25.485Z,0.00
2017-08-02T01:27:25.676Z,0.00
2017-08-02T01:28:19.084Z,0.00
2017-08-02T01:29:19.239Z,0.00
2017-08-02T01:30:14.158Z,0.00
2017-08-02T01:31:14.436Z,0.00
2017-08-02T01:32:14.336Z,0.00
2017-08-02T01:33:14.403Z,0.00
2017-08-02T01:34:14.412Z,0.00
2017-08-02T01:35:14.346Z,0.00
2017-08-02T01:36:08.474Z,0.00
2017-08-02T01:37:08.490Z,0.00
2017-08-02T01:38:03.592Z,0.00
2017-08-02T01:39:03.521Z,0.00
2017-08-02T01:39:57.582Z,0.00
2017-08-02T01:40:58.127Z,0.00
2017-08-02T01:41:52.621Z,0.00
2017-08-02T01:42:48.144Z,0.00
2017-08-02T01:43:47.812Z,0.00
2017-08-02T01:44:42.830Z,0.00
2017-08-02T01:45:37.841Z,0.00
2017-08-02T01:46:38.766Z,0.00
2017-08-02T01:47:38.861Z,0.00
2017-08-02T01:48:39.009Z,0.00
2017-08-02T01:49:34.018Z,0.00
2017-08-02T01:50:28.519Z,0.00
2017-08-02T01:51:27.979Z,0.00
2017-08-02T01:52:23.112Z,0.00
2017-08-02T01:53:23.068Z,0.00
2017-08-02T01:54:17.136Z,0.00
2017-08-02T01:55:17.188Z,0.00
2017-08-02T01:56:12.187Z,0.00
2017-08-02T01:57:07.213Z,0.00
2017-08-02T01:58:07.175Z,0.00
2017-08-02T01:59:02.372Z,0.00
2017-08-02T01:59:57.290Z,0.00
2017-08-02T02:00:58.495Z,0.00
2017-08-02T02:01:58.970Z,0.00
2017-08-02T02:02:58.422Z,0.00
2017-08-02T02:03:53.511Z,0.00
2017-08-02T02:04:47.590Z,0.00
2017-08-02T02:05:47.573Z,0.00
2017-08-02T02:06:42.638Z,0.00
2017-08-02T02:07:43.137Z,0.00
2017-08-02T02:08:42.775Z,0.00
2017-08-02T02:09:42.622Z,0.00
2017-08-02T02:10:36.733Z,0.00
2017-08-02T02:11:36.738Z,0.00
2017-08-02T02:12:32.349Z,0.00
2017-08-02T02:13:32.285Z,0.00
2017-08-02T02:14:25.948Z,0.00
2017-08-02T02:15:25.982Z,0.00
2017-08-02T02:16:20.889Z,0.00
2017-08-02T02:17:15.936Z,0.00
2017-08-02T02:18:16.604Z,0.00
2017-08-02T02:19:11.558Z,0.00
2017-08-02T02:20:06.017Z,0.00
2017-08-02T02:21:07.091Z,0.00
2017-08-02T02:22:07.119Z,0.00
2017-08-02T02:23:07.660Z,0.00
2017-08-02T02:24:02.285Z,0.00
2017-08-02T02:25:02.511Z,0.00
2017-08-02T02:26:08.339Z,0.00
2017-08-02T02:27:08.386Z,0.00
2017-08-02T02:28:08.296Z,0.00
2017-08-02T02:29:03.386Z,0.00
2017-08-02T02:30:09.350Z,0.00
2017-08-02T02:31:03.906Z,0.00
2017-08-02T02:32:03.495Z,0.00
2017-08-02T02:32:58.494Z,0.00
2017-08-02T02:34:04.708Z,0.00
2017-08-02T02:34:59.613Z,0.00
2017-08-02T02:35:54.206Z,0.00
2017-08-02T02:36:54.015Z,0.00
2017-08-02T02:37:54.163Z,0.00
2017-08-02T02:38:48.803Z,0.00
2017-08-02T02:39:48.852Z,0.00
2017-08-02T02:40:48.874Z,0.00
2017-08-02T02:41:42.792Z,0.00
2017-08-02T02:42:42.990Z,0.00
2017-08-02T02:43:37.960Z,0.00
2017-08-02T02:44:37.963Z,0.00
2017-08-02T02:45:31.936Z,0.00
2017-08-02T02:46:32.008Z,0.00
2017-08-02T02:47:27.659Z,0.00
2017-08-02T02:48:22.155Z,0.00
2017-08-02T02:49:22.166Z,0.00
2017-08-02T02:50:17.239Z,0.00
2017-08-02T02:51:12.228Z,0.00
2017-08-02T02:52:13.303Z,0.00
2017-08-02T02:53:13.945Z,0.00
2017-08-02T02:54:13.331Z,0.00
2017-08-02T02:55:08.440Z,0.00
2017-08-02T02:56:02.798Z,0.00
2017-08-02T02:57:02.425Z,0.00
2017-08-02T02:57:57.939Z,0.00
2017-08-02T02:58:57.515Z,0.00
2017-08-02T02:59:51.475Z,0.00
2017-08-02T03:00:51.670Z,0.00
2017-08-02T03:01:46.655Z,0.00
2017-08-02T03:02:42.092Z,0.00
2017-08-02T03:03:41.804Z,0.00
2017-08-02T03:04:37.277Z,0.00
2017-08-02T03:05:31.830Z,0.00
2017-08-02T03:06:32.824Z,0.00
2017-08-02T03:07:33.364Z,0.00
2017-08-02T03:08:32.916Z,0.00
2017-08-02T03:09:27.924Z,0.00
2017-08-02T03:10:21.881Z,0.00
2017-08-02T03:11:21.964Z,0.00
2017-08-02T03:12:17.406Z,0.00
2017-08-02T03:13:17.148Z,0.00
2017-08-02T03:14:11.036Z,0.00
2017-08-02T03:15:11.083Z,0.00
2017-08-02T03:16:06.130Z,0.00
2017-08-02T03:17:01.212Z,0.00
2017-08-02T03:18:01.637Z,0.00
2017-08-02T03:18:56.167Z,0.00
2017-08-02T03:19:52.734Z,0.00
2017-08-02T03:20:57.480Z,0.00
2017-08-02T03:21:51.762Z,0.00
2017-08-02T03:22:51.592Z,0.00
2017-08-02T03:23:46.368Z,0.00
2017-08-02T03:24:46.555Z,0.00
2017-08-02T03:25:40.901Z,0.00
2017-08-02T03:26:40.531Z,0.00
2017-08-02T03:27:36.253Z,0.00
2017-08-02T03:28:31.089Z,0.00
2017-08-02T03:29:31.201Z,0.00
2017-08-02T03:30:25.749Z,0.00
2017-08-02T03:31:20.850Z,0.00
2017-08-02T03:32:20.735Z,0.00
2017-08-02T03:33:15.729Z,0.00
2017-08-02T03:34:11.213Z,0.00
2017-08-02T03:35:11.905Z,0.00
2017-08-02T03:36:11.998Z,0.00
2017-08-02T03:37:12.102Z,0.00
2017-08-02T03:38:12.216Z,0.00
2017-08-02T03:39:13.013Z,0.00
2017-08-02T03:40:14.038Z,0.00
2017-08-02T03:41:08.100Z,0.00
2017-08-02T03:42:08.114Z,0.00
2017-08-02T03:43:03.161Z,0.00
2017-08-02T03:43:58.159Z,0.00
2017-08-02T03:44:52.721Z,0.00
2017-08-02T03:45:52.287Z,0.00
2017-08-02T03:46:47.289Z,0.00
2017-08-02T03:47:47.810Z,0.00
2017-08-02T03:48:48.513Z,0.00
2017-08-02T03:49:42.354Z,0.00
2017-08-02T03:50:42.846Z,0.00
2017-08-02T03:51:37.476Z,0.00
2017-08-02T03:52:33.114Z,0.00
2017-08-02T03:53:26.598Z,0.00
2017-08-02T03:54:26.800Z,0.00
2017-08-02T03:55:22.059Z,0.00
2017-08-02T03:56:17.188Z,0.00
2017-08-02T03:57:16.768Z,0.00
2017-08-02T03:58:12.188Z,0.00
2017-08-02T03:59:06.965Z,0.00
2017-08-02T04:00:00.838Z,0.00
2017-08-02T04:01:01.924Z,0.01
2017-08-02T04:01:56.987Z,0.01
2017-08-02T04:02:56.994Z,0.01
2017-08-02T04:03:56.949Z,0.01
2017-08-02T04:04:57.075Z,0.01
2017-08-02T04:06:03.150Z,0.01
2017-08-02T04:06:58.123Z,0.01
2017-08-02T04:07:52.426Z,0.01
2017-08-02T04:08:52.736Z,0.01
2017-08-02T04:09:47.260Z,0.01
2017-08-02T04:10:47.173Z,0.01
2017-08-02T04:11:48.362Z,0.01
2017-08-02T04:12:48.276Z,0.01
2017-08-02T04:13:48.284Z,0.02
2017-08-02T04:14:48.850Z,0.02
2017-08-02T04:15:48.546Z,0.02
2017-08-02T04:16:48.423Z,0.02
2017-08-02T04:17:48.453Z,0.02
2017-08-02T04:18:48.435Z,0.02
2017-08-02T04:19:49.056Z,0.02
2017-08-02T04:20:48.573Z,0.02
2017-08-02T04:21:48.582Z,0.02
2017-08-02T04:22:49.006Z,0.03
2017-08-02T04:23:48.833Z,0.03
2017-08-02T04:24:48.629Z,0.03
2017-08-02T04:25:49.127Z,0.03
2017-08-02T04:26:48.958Z,0.03
2017-08-02T04:27:48.799Z,0.03
2017-08-02T04:28:48.974Z,0.03
2017-08-02T04:29:54.869Z,0.04
2017-08-02T04:30:50.107Z,0.04
2017-08-02T04:31:44.000Z,0.04
2017-08-02T04:32:43.973Z,0.04
2017-08-02T04:33:38.976Z,0.04
2017-08-02T04:34:34.312Z,0.04
2017-08-02T04:35:34.073Z,0.04
2017-08-02T04:36:29.201Z,0.04
2017-08-02T04:37:24.154Z,0.04
2017-08-02T04:38:18.226Z,0.04
2017-08-02T04:39:18.393Z,0.04
2017-08-02T04:40:13.257Z,0.04
2017-08-02T04:41:13.330Z,0.04
2017-08-02T04:42:13.395Z,0.05
2017-08-02T04:43:13.974Z,0.05
2017-08-02T04:44:07.942Z,0.05
2017-08-02T04:45:07.518Z,0.05
2017-08-02T04:46:02.572Z,0.05
2017-08-02T04:46:57.660Z,0.05
2017-08-02T04:47:51.645Z,0.05
2017-08-02T04:48:52.179Z,0.06
2017-08-02T04:49:47.086Z,0.06
2017-08-02T04:50:42.213Z,0.06
2017-08-02T04:51:42.330Z,0.06
2017-08-02T04:52:37.200Z,0.06
2017-08-02T04:53:37.372Z,0.07
2017-08-02T04:54:38.443Z,0.07
2017-08-02T04:55:39.474Z,0.07
2017-08-02T04:56:33.483Z,0.06
2017-08-02T04:57:33.702Z,0.06
2017-08-02T04:58:27.809Z,0.05
2017-08-02T04:59:27.535Z,0.05
2017-08-02T05:00:16.610Z,0.05
2017-08-02T05:01:10.554Z,0.05
2017-08-02T05:02:04.689Z,0.05
2017-08-02T05:03:04.798Z,0.05
2017-08-02T05:03:59.762Z,0.05
2017-08-02T05:04:59.703Z,0.05
2017-08-02T05:05:53.820Z,0.05
2017-08-02T05:06:53.921Z,0.05
2017-08-02T05:07:53.878Z,0.05
2017-08-02T05:08:54.012Z,0.05
2017-08-02T05:09:54.015Z,0.05
2017-08-02T05:10:48.071Z,0.06
2017-08-02T05:11:49.179Z,0.06
2017-08-02T05:12:43.176Z,0.06
2017-08-02T05:13:43.248Z,0.07
2017-08-02T05:14:38.269Z,0.07
2017-08-02T05:15:32.343Z,0.07
2017-08-02T05:16:38.322Z,0.07
2017-08-02T05:17:33.389Z,0.08
2017-08-02T05:18:27.461Z,0.08
2017-08-02T05:19:22.467Z,0.08
2017-08-02T05:20:10.506Z,0.08
2017-08-02T05:20:59.715Z,0.08
2017-08-02T05:21:53.505Z,0.08
2017-08-02T05:22:42.554Z,0.08
2017-08-02T05:23:42.630Z,0.09
2017-08-02T05:24:36.685Z,0.09
2017-08-02T05:25:36.878Z,0.09
2017-08-02T05:26:31.785Z,0.08
2017-08-02T05:27:31.955Z,0.08
2017-08-02T05:28:32.778Z,0.08
2017-08-02T05:29:21.972Z,0.08
2017-08-02T05:30:15.986Z,0.08
2017-08-02T05:31:10.060Z,0.09
2017-08-02T05:32:04.216Z,0.09
2017-08-02T05:32:57.946Z,0.10
2017-08-02T05:33:58.070Z,0.11
2017-08-02T05:34:46.156Z,0.11
2017-08-02T05:35:34.201Z,0.11
2017-08-02T05:36:29.247Z,0.12
2017-08-02T05:37:24.375Z,0.12
2017-08-02T05:38:12.404Z,0.11
2017-08-02T05:39:13.333Z,0.11
2017-08-02T05:40:08.374Z,0.11
2017-08-02T05:41:08.453Z,0.10
2017-08-02T05:42:02.530Z,0.11
2017-08-02T05:42:51.589Z,0.11
2017-08-02T05:43:45.492Z,0.11
2017-08-02T05:44:45.662Z,0.12
2017-08-02T05:45:40.634Z,0.12
2017-08-02T05:46:35.689Z,0.13
2017-08-02T05:47:29.809Z,0.13
2017-08-02T05:48:30.792Z,0.13
2017-08-02T05:49:25.843Z,0.13
2017-08-02T05:50:25.926Z,0.13
2017-08-02T05:51:25.847Z,0.13
2017-08-02T05:52:25.851Z,0.13
2017-08-02T05:53:26.057Z,0.13
2017-08-02T05:54:21.083Z,0.13
2017-08-02T05:55:10.145Z,0.13
2017-08-02T05:56:10.138Z,0.13
2017-08-02T05:57:10.239Z,0.12
2017-08-02T05:58:04.186Z,0.12
2017-08-02T05:59:04.319Z,0.11
2017-08-02T05:59:59.395Z,0.11
2017-08-02T06:00:54.307Z,0.11
2017-08-02T06:01:48.330Z,0.12
2017-08-02T06:02:42.459Z,0.13
2017-08-02T06:03:31.483Z,0.13
2017-08-02T06:04:20.545Z,0.13
2017-08-02T06:05:08.585Z,0.14
2017-08-02T06:05:57.619Z,0.14
2017-08-02T06:06:46.677Z,0.15
2017-08-02T06:07:35.677Z,0.15
2017-08-02T06:08:23.676Z,0.15
2017-08-02T06:09:12.831Z,0.15
2017-08-02T06:10:00.803Z,0.14
2017-08-02T06:10:48.848Z,0.14
2017-08-02T06:11:37.980Z,0.14
2017-08-02T06:12:32.051Z,0.14
2017-08-02T06:13:31.924Z,0.15
2017-08-02T06:14:31.977Z,0.15
2017-08-02T06:15:27.103Z,0.14
2017-08-02T06:16:27.127Z,0.14
2017-08-02T06:17:22.148Z,0.12
2017-08-02T06:18:10.248Z,0.11
2017-08-02T06:18:59.230Z,0.09
2017-08-02T06:19:47.356Z,0.09
2017-08-02T06:20:35.439Z,0.09
2017-08-02T06:21:35.419Z,0.10
2017-08-02T06:22:30.530Z,0.10
2017-08-02T06:23:31.692Z,0.11
2017-08-02T06:24:31.597Z,0.11
2017-08-02T06:25:26.587Z,0.13
2017-08-02T06:26:21.723Z,0.13
2017-08-02T06:27:21.778Z,0.15
2017-08-02T06:28:16.678Z,0.17
2017-08-02T06:29:11.822Z,0.18
2017-08-02T06:30:05.833Z,0.16
2017-08-02T06:31:06.900Z,0.15
2017-08-02T06:32:01.981Z,0.14
2017-08-02T06:33:01.989Z,0.14
2017-08-02T06:33:57.001Z,0.15
2017-08-02T06:34:57.097Z,0.15
2017-08-02T06:35:51.105Z,0.16
2017-08-02T06:36:45.100Z,0.18
2017-08-02T06:37:34.314Z,0.18
2017-08-02T06:38:29.680Z,0.20
2017-08-02T06:39:23.332Z,0.24
2017-08-02T06:40:11.325Z,0.22
2017-08-02T06:41:00.427Z,0.25
2017-08-02T06:41:55.393Z,0.25
2017-08-02T06:42:55.579Z,0.24
2017-08-02T06:43:49.556Z,0.25
2017-08-02T06:44:44.607Z,0.26
2017-08-02T06:45:32.612Z,0.26
2017-08-02T06:46:26.648Z,0.24
2017-08-02T06:47:15.849Z,0.16
2017-08-02T06:48:10.806Z,0.16
2017-08-02T06:48:59.830Z,0.17
2017-08-02T06:49:54.825Z,0.16
2017-08-02T06:50:43.955Z,0.15
2017-08-02T06:51:32.025Z,0.15
2017-08-02T06:52:20.970Z,0.15
2017-08-02T06:53:09.117Z,0.15
2017-08-02T06:53:58.069Z,0.16
2017-08-02T06:54:46.116Z,0.16
2017-08-02T06:55:34.296Z,0.17
2017-08-02T06:56:23.300Z,0.18
2017-08-02T06:57:11.330Z,0.19
2017-08-02T06:58:00.403Z,0.19
2017-08-02T06:58:49.470Z,0.20
2017-08-02T06:59:38.574Z,0.21
2017-08-02T07:00:27.475Z,0.22
2017-08-02T07:01:21.585Z,0.23
2017-08-02T07:02:10.593Z,0.24
2017-08-02T07:02:58.703Z,0.24
2017-08-02T07:03:59.783Z,0.22
2017-08-02T07:04:48.929Z,0.23
2017-08-02T07:05:36.788Z,0.24
2017-08-02T07:06:25.775Z,0.24
2017-08-02T07:07:20.898Z,0.22
2017-08-02T07:08:10.041Z,0.21
2017-08-02T07:09:03.994Z,0.21
2017-08-02T07:09:53.234Z,0.19
2017-08-02T07:10:41.070Z,0.18
2017-08-02T07:11:30.148Z,0.17
2017-08-02T07:12:18.220Z,0.18
2017-08-02T07:13:06.180Z,0.19
2017-08-02T07:13:55.258Z,0.20
2017-08-02T07:14:43.384Z,0.22
2017-08-02T07:15:31.463Z,0.22
2017-08-02T07:16:19.443Z,0.23
2017-08-02T07:17:07.611Z,0.25
2017-08-02T07:17:56.560Z,0.26
2017-08-02T07:18:45.646Z,0.27
2017-08-02T07:19:33.715Z,0.28
2017-08-02T07:20:34.644Z,0.28
2017-08-02T07:21:34.832Z,0.26
2017-08-02T07:22:29.941Z,0.22
2017-08-02T07:23:30.002Z,0.19
2017-08-02T07:24:18.945Z,0.19
2017-08-02T07:25:07.939Z,0.21
2017-08-02T07:26:03.039Z,0.23
2017-08-02T07:26:57.055Z,0.25
2017-08-02T07:27:45.162Z,0.26
2017-08-02T07:28:33.083Z,0.27
2017-08-02T07:29:22.189Z,0.36
2017-08-02T07:30:10.319Z,0.38
2017-08-02T07:31:04.299Z,0.41
2017-08-02T07:31:52.366Z,0.42
2017-08-02T07:32:53.444Z,0.45
2017-08-02T07:33:41.464Z,0.38
2017-08-02T07:34:30.554Z,0.37
2017-08-02T07:35:19.514Z,0.36
2017-08-02T07:36:14.577Z,0.37
2017-08-02T07:37:14.669Z,0.37
2017-08-02T07:38:09.677Z,0.38
2017-08-02T07:38:57.784Z,0.37
2017-08-02T07:39:57.751Z,0.36
2017-08-02T07:40:51.915Z,0.35
2017-08-02T07:41:45.969Z,0.34
2017-08-02T07:42:35.057Z,0.33
2017-08-02T07:43:29.934Z,0.33
2017-08-02T07:44:24.137Z,0.34
2017-08-02T07:45:12.072Z,0.35
2017-08-02T07:46:06.295Z,0.36
2017-08-02T07:47:06.225Z,0.36
2017-08-02T07:48:00.281Z,0.36
2017-08-02T07:48:54.362Z,0.36
2017-08-02T07:49:48.352Z,0.35
2017-08-02T07:50:42.454Z,0.37
2017-08-02T07:51:36.509Z,0.36
2017-08-02T07:52:30.587Z,0.36
2017-08-02T07:53:25.582Z,0.37
2017-08-02T07:54:19.618Z,0.40
2017-08-02T07:55:19.774Z,0.44
2017-08-02T07:56:07.830Z,0.45
2017-08-02T07:57:02.817Z,0.52
2017-08-02T07:57:50.881Z,0.68
2017-08-02T07:58:45.001Z,0.44
2017-08-02T07:59:40.044Z,0.38
2017-08-02T08:00:34.064Z,0.35
2017-08-02T08:01:28.124Z,0.34
2017-08-02T08:02:22.234Z,0.34
2017-08-02T08:03:16.132Z,0.34
2017-08-02T08:04:10.344Z,0.33
2017-08-02T08:05:10.357Z,0.31
2017-08-02T08:06:05.395Z,0.30
2017-08-02T08:06:59.437Z,0.30
2017-08-02T08:08:00.520Z,0.31
2017-08-02T08:08:49.602Z,0.33
2017-08-02T08:09:38.584Z,0.34
2017-08-02T08:10:33.767Z,0.34
2017-08-02T08:11:28.792Z,0.33
2017-08-02T08:12:17.803Z,0.31
2017-08-02T08:13:11.813Z,0.28
2017-08-02T08:14:06.946Z,0.27
2017-08-02T08:15:00.951Z,0.26
2017-08-02T08:15:50.060Z,0.26
2017-08-02T08:16:37.981Z,0.27
2017-08-02T08:17:38.158Z,0.31
2017-08-02T08:18:32.119Z,0.35
2017-08-02T08:19:32.185Z,0.37
2017-08-02T08:20:21.288Z,0.38
2017-08-02T08:21:16.534Z,0.40
2017-08-02T08:22:04.535Z,0.45
2017-08-02T08:22:58.316Z,0.45
2017-08-02T08:23:52.427Z,0.45
2017-08-02T08:24:41.548Z,0.41
2017-08-02T08:25:30.505Z,0.38
2017-08-02T08:26:24.756Z,0.36
2017-08-02T08:27:12.729Z,0.35
2017-08-02T08:28:12.715Z,0.34
2017-08-02T08:29:01.725Z,0.36
2017-08-02T08:30:01.863Z,0.42
2017-08-02T08:30:56.836Z,0.48
2017-08-02T08:31:46.063Z,0.47
2017-08-02T08:32:35.046Z,0.45
2017-08-02T08:33:29.125Z,0.46
2017-08-02T08:34:24.123Z,0.47
2017-08-02T08:35:19.189Z,0.47
2017-08-02T08:36:13.229Z,0.48
2017-08-02T08:37:02.983Z,0.47
2017-08-02T08:38:08.399Z,0.46
2017-08-02T08:39:03.492Z,0.45
2017-08-02T08:39:57.398Z,0.41
2017-08-02T08:40:51.463Z,0.43
2017-08-02T08:41:46.489Z,0.39
2017-08-02T08:42:40.626Z,0.34
2017-08-02T08:43:40.562Z,0.30
2017-08-02T08:44:29.713Z,0.28
2017-08-02T08:45:29.819Z,0.33
2017-08-02T08:46:29.713Z,0.40
2017-08-02T08:47:23.843Z,0.39
2017-08-02T08:48:18.008Z,0.39
2017-08-02T08:49:11.981Z,0.31
2017-08-02T08:50:06.054Z,0.27
2017-08-02T08:50:54.987Z,0.28
2017-08-02T08:51:50.171Z,0.28
2017-08-02T08:52:44.213Z,0.29
2017-08-02T08:53:33.246Z,0.25
2017-08-02T08:54:22.378Z,0.20
2017-08-02T08:55:11.542Z,0.19
2017-08-02T08:55:59.426Z,0.21
2017-08-02T08:56:59.430Z,0.23
2017-08-02T08:57:53.480Z,0.21
2017-08-02T08:58:53.630Z,0.20
2017-08-02T08:59:47.688Z,0.21
2017-08-02T09:00:36.661Z,0.28
2017-08-02T09:01:36.723Z,0.34
2017-08-02T09:02:24.906Z,0.33
2017-08-02T09:03:25.878Z,0.32
2017-08-02T09:04:19.941Z,0.30
2017-08-02T09:05:08.919Z,0.29
2017-08-02T09:06:02.931Z,0.29
2017-08-02T09:06:58.179Z,0.27
2017-08-02T09:07:47.140Z,0.30
2017-08-02T09:08:36.114Z,0.28
2017-08-02T09:09:30.389Z,0.26
2017-08-02T09:10:25.240Z,0.27
2017-08-02T09:11:20.377Z,0.26
2017-08-02T09:12:14.426Z,0.24
2017-08-02T09:13:14.439Z,0.26
2017-08-02T09:14:08.524Z,0.33
2017-08-02T09:14:57.476Z,0.47
2017-08-02T09:15:45.644Z,0.52
2017-08-02T09:16:40.713Z,0.64
2017-08-02T09:17:34.834Z,0.61
2017-08-02T09:18:34.696Z,0.33
2017-08-02T09:19:23.736Z,0.28
2017-08-02T09:20:17.791Z,0.25
2017-08-02T09:21:06.819Z,0.22
2017-08-02T09:22:07.028Z,0.20
2017-08-02T09:22:55.038Z,0.18
2017-08-02T09:23:55.056Z,0.16
2017-08-02T09:24:49.196Z,0.18
2017-08-02T09:25:44.188Z,0.24
2017-08-02T09:26:39.243Z,0.30
2017-08-02T09:27:34.314Z,0.34
2017-08-02T09:28:34.342Z,0.36
2017-08-02T09:29:23.432Z,0.39
2017-08-02T09:30:17.355Z,0.40
2017-08-02T09:31:05.543Z,0.41
2017-08-02T09:31:59.555Z,0.60
2017-08-02T09:32:53.697Z,0.72
2017-08-02T09:33:53.585Z,0.54
2017-08-02T09:34:47.623Z,0.59
2017-08-02T09:35:42.878Z,0.72
2017-08-02T09:36:36.962Z,0.70
2017-08-02T09:37:30.977Z,0.77
2017-08-02T09:38:24.987Z,0.79
2017-08-02T09:39:14.024Z,0.73
2017-08-02T09:40:08.132Z,0.41
2017-08-02T09:41:02.150Z,0.59
2017-08-02T09:41:51.284Z,0.23
2017-08-02T09:42:46.304Z,0.16
2017-08-02T09:43:40.219Z,0.13
2017-08-02T09:44:34.455Z,0.14
2017-08-02T09:45:29.494Z,0.19
2017-08-02T09:46:24.528Z,0.23
2017-08-02T09:47:13.580Z,0.24
2017-08-02T09:48:13.622Z,0.26
2017-08-02T09:49:08.611Z,0.30
2017-08-02T09:50:14.725Z,0.42
2017-08-02T09:51:08.763Z,0.50
2017-08-02T09:52:02.809Z,0.72
2017-08-02T09:52:56.903Z,0.56
2017-08-02T09:53:57.888Z,0.71
2017-08-02T09:54:52.984Z,0.92
2017-08-02T09:55:47.097Z,1.00
2017-08-02T09:56:41.117Z,0.62
2017-08-02T09:57:35.289Z,0.91
2017-08-02T09:58:35.342Z,1.01
2017-08-02T09:59:29.455Z,0.63
2017-08-02T10:00:23.490Z,1.06
2017-08-02T10:01:12.457Z,1.06
2017-08-02T10:02:00.590Z,1.07
2017-08-02T10:02:54.692Z,0.50
2017-08-02T10:03:49.781Z,0.99
2017-08-02T10:04:43.797Z,0.84
2017-08-02T10:05:37.880Z,0.94
2017-08-02T10:06:27.023Z,0.60
2017-08-02T10:07:21.128Z,0.88
2017-08-02T10:08:15.216Z,0.43
2017-08-02T10:09:03.398Z,0.70
2017-08-02T10:09:57.219Z,0.87
2017-08-02T10:10:51.406Z,0.40
2017-08-02T10:11:46.413Z,0.88
2017-08-02T10:12:40.610Z,0.38
2017-08-02T10:13:40.640Z,0.97
2017-08-02T10:14:29.699Z,1.01
2017-08-02T10:15:17.635Z,0.96
2017-08-02T10:16:12.728Z,0.93
2017-08-02T10:17:06.860Z,0.45
2017-08-02T10:18:00.827Z,0.63
2017-08-02T10:18:55.022Z,0.39
2017-08-02T10:19:55.090Z,0.43
2017-08-02T10:20:50.105Z,0.47
2017-08-02T10:21:50.178Z,0.37
2017-08-02T10:22:39.271Z,0.47
2017-08-02T10:23:28.289Z,0.88
2017-08-02T10:24:16.305Z,0.93
2017-08-02T10:25:10.467Z,0.53
2017-08-02T10:26:05.389Z,0.49
2017-08-02T10:26:59.564Z,0.98
2017-08-02T10:27:53.587Z,1.15
2017-08-02T10:28:41.659Z,1.09
2017-08-02T10:29:35.710Z,0.63
2017-08-02T10:30:35.845Z,0.70
2017-08-02T10:31:24.793Z,0.94
2017-08-02T10:32:14.021Z,0.60
2017-08-02T10:33:03.090Z,0.59
2017-08-02T10:34:03.014Z,0.80
2017-08-02T10:34:57.087Z,0.61
2017-08-02T10:35:46.114Z,0.68
2017-08-02T10:36:40.191Z,0.57
2017-08-02T10:37:34.262Z,0.46
2017-08-02T10:38:29.797Z,0.40
2017-08-02T10:39:18.434Z,0.37
2017-08-02T10:40:12.571Z,0.35
2017-08-02T10:41:06.621Z,0.36
2017-08-02T10:42:06.688Z,0.38
2017-08-02T10:43:01.761Z,0.40
2017-08-02T10:43:55.721Z,0.41
2017-08-02T10:44:55.784Z,0.43
2017-08-02T10:45:50.953Z,0.45
2017-08-02T10:46:45.969Z,0.46
2017-08-02T10:47:40.071Z,0.43
2017-08-02T10:48:34.018Z,0.39
2017-08-02T10:49:22.151Z,0.37
2017-08-02T10:50:22.283Z,0.35
2017-08-02T10:51:16.357Z,0.35
2017-08-02T10:52:05.405Z,0.36
2017-08-02T10:52:54.321Z,0.37
2017-08-02T10:53:48.463Z,0.39
2017-08-02T10:54:36.511Z,0.40
2017-08-02T10:55:36.594Z,0.41
2017-08-02T10:56:31.587Z,0.43
2017-08-02T10:57:26.719Z,0.39
2017-08-02T10:58:20.688Z,0.37
2017-08-02T10:59:14.754Z,0.36
2017-08-02T11:00:08.836Z,0.36
2017-08-02T11:01:02.844Z,0.48
2017-08-02T11:01:56.939Z,0.54
2017-08-02T11:02:52.126Z,0.69
2017-08-02T11:03:46.061Z,0.63
2017-08-02T11:04:41.108Z,0.61
2017-08-02T11:05:30.186Z,0.67
2017-08-02T11:06:25.222Z,0.70
2017-08-02T11:07:20.357Z,0.80
2017-08-02T11:08:09.461Z,0.59
2017-08-02T11:09:03.308Z,0.45
2017-08-02T11:09:52.583Z,0.44
2017-08-02T11:10:47.474Z,0.44
2017-08-02T11:11:36.553Z,0.52
2017-08-02T11:12:31.627Z,0.66
2017-08-02T11:13:20.878Z,0.54
2017-08-02T11:14:14.793Z,0.54
2017-08-02T11:15:02.853Z,0.55
2017-08-02T11:15:51.901Z,0.47
2017-08-02T11:16:40.918Z,0.46
2017-08-02T11:17:35.108Z,0.49
2017-08-02T11:18:24.225Z,0.59
2017-08-02T11:19:19.212Z,0.56
2017-08-02T11:20:13.196Z,0.41
2017-08-02T11:21:07.272Z,0.94
2017-08-02T11:22:07.263Z,0.59
2017-08-02T11:23:02.347Z,0.56
2017-08-02T11:24:02.365Z,0.70
2017-08-02T11:24:57.538Z,0.60
2017-08-02T11:25:51.639Z,0.55
2017-08-02T11:26:40.615Z,0.86
2017-08-02T11:27:34.714Z,0.57
2017-08-02T11:28:28.725Z,0.46
2017-08-02T11:29:28.833Z,0.47
2017-08-02T11:30:23.837Z,0.54
2017-08-02T11:31:12.796Z,0.47
2017-08-02T11:32:06.902Z,0.46
2017-08-02T11:32:55.147Z,0.52
2017-08-02T11:33:50.103Z,0.53
2017-08-02T11:34:50.174Z,0.53
2017-08-02T11:35:44.172Z,0.52
2017-08-02T11:36:39.197Z,0.48
2017-08-02T11:37:27.319Z,0.50
2017-08-02T11:38:15.378Z,0.51
2017-08-02T11:39:04.462Z,0.50
2017-08-02T11:39:58.488Z,0.57
2017-08-02T11:40:53.651Z,0.66
2017-08-02T11:41:47.741Z,1.02
2017-08-02T11:42:43.064Z,1.04
2017-08-02T11:43:31.726Z,0.95
2017-08-02T11:44:26.801Z,0.57
2017-08-02T11:45:21.984Z,0.31
2017-08-02T11:46:10.948Z,0.34
2017-08-02T11:47:06.023Z,0.32
2017-08-02T11:47:54.081Z,0.31
2017-08-02T11:48:48.202Z,0.34
2017-08-02T11:49:42.134Z,0.49
2017-08-02T11:50:31.370Z,0.57
2017-08-02T11:51:25.341Z,0.43
2017-08-02T11:52:20.461Z,0.52
2017-08-02T11:53:08.413Z,0.44
2017-08-02T11:53:57.508Z,0.45
2017-08-02T11:54:45.650Z,0.61
2017-08-02T11:55:40.719Z,0.79
2017-08-02T11:56:29.642Z,0.88
2017-08-02T11:57:17.795Z,0.50
2017-08-02T11:58:05.724Z,0.48
2017-08-02T11:58:59.959Z,0.47
2017-08-02T11:59:54.011Z,0.67
2017-08-02T12:00:42.287Z,0.65
2017-08-02T12:01:37.164Z,0.63
2017-08-02T12:02:25.242Z,0.50
2017-08-02T12:03:14.302Z,0.46
2017-08-02T12:04:09.371Z,0.54
2017-08-02T12:05:09.435Z,0.86
2017-08-02T12:06:04.579Z,0.89
2017-08-02T12:07:04.714Z,0.88
2017-08-02T12:07:53.644Z,0.59
2017-08-02T12:08:47.723Z,0.49
2017-08-02T12:09:42.790Z,0.56
2017-08-02T12:10:37.811Z,0.50
2017-08-02T12:11:25.890Z,0.56
2017-08-02T12:12:14.959Z,0.35
2017-08-02T12:13:15.042Z,0.55
2017-08-02T12:14:09.144Z,0.98
2017-08-02T12:14:58.240Z,0.72